DAL48 PHNL-KLAX
Flight info
| Callsign | DAL48 |
|---|---|
| Flight time | 4h 50m |
| Altitude | 37000 |
| Route | MKK5 KOLEA CLUTS R465 CIVIT/N0461F390 R585 GITLE ADUMM GALIP R585 AUDIA SNAXX RYDRR2 |
| Aircraft | A339/H-SADE1E2E3GHIJ3J5M1P2RWXY/LB2D1 |
Departure
| Time | 2026-04-21 15:54 |
|---|---|
| Airport | Daniel K. Inouye International Airport (PHNL) |
Arrival
| Time | 2026-04-21 20:45 |
|---|---|
| Airport | Los Angeles International Airport (KLAX) |
| Time | Latitude | Longitude | Altitude | Speed | Heading |
|---|---|---|---|---|---|
| 2026-04-21 15:24 | 21.32959 | -157.92077 | 30 ft | 0 kts | 98° |
| 2026-04-21 15:39 | 21.32959 | -157.92082 | 29 ft | 2 kts | 98° |
| 2026-04-21 15:39 | 21.32961 | -157.92100 | 29 ft | 3 kts | 107° |
| 2026-04-21 15:39 | 21.32966 | -157.92119 | 28 ft | 3 kts | 129° |
| 2026-04-21 15:39 | 21.32978 | -157.92134 | 28 ft | 3 kts | 155° |
| 2026-04-21 15:40 | 21.32994 | -157.92142 | 29 ft | 3 kts | 176° |
| 2026-04-21 15:40 | 21.33012 | -157.92143 | 29 ft | 2 kts | 189° |
| 2026-04-21 15:40 | 21.33018 | -157.92142 | 28 ft | 0 kts | 189° |
| 2026-04-21 15:44 | 21.33014 | -157.92142 | 29 ft | 2 kts | 189° |
| 2026-04-21 15:44 | 21.32936 | -157.92156 | 30 ft | 16 kts | 188° |
| 2026-04-21 15:44 | 21.32828 | -157.92186 | 30 ft | 16 kts | 209° |
| 2026-04-21 15:45 | 21.32740 | -157.92245 | 30 ft | 13 kts | 197° |
| 2026-04-21 15:45 | 21.32692 | -157.92314 | 30 ft | 12 kts | 262° |
| 2026-04-21 15:45 | 21.32691 | -157.92410 | 30 ft | 16 kts | 270° |
| 2026-04-21 15:45 | 21.32692 | -157.92545 | 30 ft | 19 kts | 270° |
| 2026-04-21 15:46 | 21.32694 | -157.92698 | 30 ft | 22 kts | 274° |
| 2026-04-21 15:46 | 21.32742 | -157.92848 | 30 ft | 21 kts | 281° |
| 2026-04-21 15:46 | 21.32743 | -157.93003 | 30 ft | 21 kts | 269° |
| 2026-04-21 15:46 | 21.32742 | -157.93158 | 30 ft | 21 kts | 270° |
| 2026-04-21 15:47 | 21.32742 | -157.93324 | 30 ft | 23 kts | 270° |
| 2026-04-21 15:47 | 21.32743 | -157.93492 | 30 ft | 22 kts | 270° |
| 2026-04-21 15:47 | 21.32742 | -157.93658 | 30 ft | 22 kts | 270° |
| 2026-04-21 15:47 | 21.32742 | -157.93848 | 30 ft | 27 kts | 270° |
| 2026-04-21 15:48 | 21.32741 | -157.93966 | 30 ft | 23 kts | 270° |
| 2026-04-21 15:48 | 21.32740 | -157.94046 | 30 ft | 7 kts | 265° |
| 2026-04-21 15:48 | 21.32742 | -157.94140 | 30 ft | 17 kts | 271° |
| 2026-04-21 15:48 | 21.32737 | -157.94271 | 30 ft | 17 kts | 255° |
| 2026-04-21 15:49 | 21.32643 | -157.94327 | 30 ft | 16 kts | 181° |
| 2026-04-21 15:49 | 21.32529 | -157.94326 | 30 ft | 17 kts | 179° |
| 2026-04-21 15:49 | 21.32442 | -157.94253 | 30 ft | 16 kts | 134° |
| 2026-04-21 15:49 | 21.32361 | -157.94163 | 30 ft | 17 kts | 134° |
| 2026-04-21 15:50 | 21.32332 | -157.94149 | 30 ft | 5 kts | 177° |
| 2026-04-21 15:50 | 21.32306 | -157.94217 | 30 ft | 18 kts | 266° |
| 2026-04-21 15:50 | 21.32258 | -157.94345 | 30 ft | 19 kts | 223° |
| 2026-04-21 15:50 | 21.32140 | -157.94420 | 30 ft | 21 kts | 209° |
| 2026-04-21 15:51 | 21.32009 | -157.94497 | 30 ft | 22 kts | 209° |
| 2026-04-21 15:51 | 21.31865 | -157.94583 | 30 ft | 25 kts | 209° |
| 2026-04-21 15:51 | 21.31705 | -157.94658 | 30 ft | 25 kts | 190° |
| 2026-04-21 15:51 | 21.31534 | -157.94644 | 30 ft | 25 kts | 173° |
| 2026-04-21 15:52 | 21.31364 | -157.94622 | 30 ft | 24 kts | 173° |
| 2026-04-21 15:52 | 21.31196 | -157.94599 | 30 ft | 24 kts | 172° |
| 2026-04-21 15:52 | 21.31031 | -157.94576 | 30 ft | 21 kts | 173° |
| 2026-04-21 15:52 | 21.30887 | -157.94571 | 30 ft | 18 kts | 180° |
| 2026-04-21 15:53 | 21.30827 | -157.94571 | 30 ft | 7 kts | 180° |
| 2026-04-21 15:53 | 21.30772 | -157.94572 | 30 ft | 10 kts | 180° |
| 2026-04-21 15:53 | 21.30691 | -157.94527 | 31 ft | 16 kts | 126° |
| 2026-04-21 15:53 | 21.30682 | -157.94426 | 33 ft | 13 kts | 91° |
| 2026-04-21 15:54 | 21.30681 | -157.94134 | 34 ft | 78 kts | 90° |
| 2026-04-21 15:54 | 21.30681 | -157.93254 | 26 ft | 155 kts | 90° |
| 2026-04-21 15:54 | 21.30678 | -157.91923 | 246 ft | 194 kts | 90° |
| 2026-04-21 15:54 | 21.30583 | -157.90416 | 819 ft | 209 kts | 102° |
| 2026-04-21 15:55 | 21.30031 | -157.88923 | 1451 ft | 222 kts | 119° |
| 2026-04-21 15:55 | 21.29069 | -157.87634 | 2294 ft | 222 kts | 137° |
| 2026-04-21 15:55 | 21.27773 | -157.86692 | 3001 ft | 230 kts | 154° |
| 2026-04-21 15:55 | 21.26219 | -157.86087 | 3514 ft | 244 kts | 164° |
| 2026-04-21 15:56 | 21.24546 | -157.85596 | 4092 ft | 254 kts | 163° |
| 2026-04-21 15:56 | 21.22815 | -157.85066 | 4666 ft | 264 kts | 163° |
| 2026-04-21 15:56 | 21.21123 | -157.84321 | 5401 ft | 258 kts | 143° |
| 2026-04-21 15:56 | 21.19989 | -157.82916 | 6364 ft | 250 kts | 118° |
| 2026-04-21 15:57 | 21.19390 | -157.81100 | 6728 ft | 267 kts | 100° |
| 2026-04-21 15:57 | 21.19240 | -157.79101 | 7317 ft | 270 kts | 87° |
| 2026-04-21 15:57 | 21.19475 | -157.77075 | 7816 ft | 280 kts | 79° |
| 2026-04-21 15:57 | 21.19816 | -157.74982 | 8314 ft | 290 kts | 79° |
| 2026-04-21 15:58 | 21.20195 | -157.72833 | 8842 ft | 296 kts | 78° |
| 2026-04-21 15:58 | 21.20608 | -157.70649 | 9378 ft | 302 kts | 77° |
| 2026-04-21 15:58 | 21.21143 | -157.68458 | 9918 ft | 306 kts | 68° |
| 2026-04-21 15:58 | 21.22134 | -157.66462 | 10351 ft | 312 kts | 56° |
| 2026-04-21 15:59 | 21.23365 | -157.64451 | 10515 ft | 330 kts | 55° |
| 2026-04-21 15:59 | 21.24673 | -157.62345 | 10680 ft | 347 kts | 55° |
| 2026-04-21 15:59 | 21.26023 | -157.60159 | 11092 ft | 354 kts | 55° |
| 2026-04-21 15:59 | 21.27381 | -157.57939 | 11627 ft | 357 kts | 55° |
| 2026-04-21 16:00 | 21.28746 | -157.55696 | 12156 ft | 361 kts | 55° |
| 2026-04-21 16:00 | 21.30123 | -157.53428 | 12675 ft | 364 kts | 54° |
| 2026-04-21 16:00 | 21.31512 | -157.51137 | 13212 ft | 368 kts | 54° |
| 2026-04-21 16:00 | 21.32896 | -157.48855 | 13730 ft | 371 kts | 54° |
| 2026-04-21 16:01 | 21.34311 | -157.46521 | 14211 ft | 374 kts | 54° |
| 2026-04-21 16:01 | 21.35735 | -157.44170 | 14689 ft | 377 kts | 54° |
| 2026-04-21 16:01 | 21.37169 | -157.41803 | 15133 ft | 380 kts | 54° |
| 2026-04-21 16:01 | 21.38617 | -157.39412 | 15614 ft | 383 kts | 53° |
| 2026-04-21 16:02 | 21.40073 | -157.37006 | 16067 ft | 386 kts | 53° |
| 2026-04-21 16:02 | 21.41541 | -157.34579 | 16515 ft | 389 kts | 53° |
| 2026-04-21 16:02 | 21.43018 | -157.32136 | 16977 ft | 392 kts | 53° |
| 2026-04-21 16:02 | 21.44509 | -157.29671 | 17400 ft | 395 kts | 53° |
| 2026-04-21 16:03 | 21.46009 | -157.27187 | 17824 ft | 398 kts | 53° |
| 2026-04-21 16:03 | 21.47522 | -157.24682 | 18260 ft | 401 kts | 53° |
| 2026-04-21 16:03 | 21.49043 | -157.22162 | 18679 ft | 403 kts | 53° |
| 2026-04-21 16:03 | 21.50568 | -157.19634 | 19134 ft | 403 kts | 53° |
| 2026-04-21 16:04 | 21.52092 | -157.17105 | 19579 ft | 404 kts | 53° |
| 2026-04-21 16:04 | 21.53623 | -157.14566 | 20019 ft | 406 kts | 53° |
| 2026-04-21 16:04 | 21.55139 | -157.12049 | 20452 ft | 407 kts | 53° |
| 2026-04-21 16:04 | 21.56678 | -157.09495 | 20882 ft | 408 kts | 53° |
| 2026-04-21 16:05 | 21.58224 | -157.06927 | 21336 ft | 410 kts | 53° |
| 2026-04-21 16:05 | 21.59777 | -157.04347 | 21798 ft | 411 kts | 53° |
| 2026-04-21 16:05 | 21.61331 | -157.01762 | 22244 ft | 413 kts | 53° |
| 2026-04-21 16:05 | 21.62891 | -156.99168 | 22701 ft | 414 kts | 53° |
| 2026-04-21 16:06 | 21.64455 | -156.96565 | 23162 ft | 416 kts | 53° |
| 2026-04-21 16:06 | 21.66030 | -156.93944 | 23614 ft | 418 kts | 53° |
| 2026-04-21 16:06 | 21.67610 | -156.91311 | 23997 ft | 420 kts | 53° |
| 2026-04-21 16:06 | 21.69195 | -156.88669 | 24367 ft | 422 kts | 53° |
| 2026-04-21 16:07 | 21.70788 | -156.86012 | 24742 ft | 424 kts | 53° |
| 2026-04-21 16:07 | 21.72390 | -156.83340 | 25124 ft | 426 kts | 52° |
| 2026-04-21 16:07 | 21.73998 | -156.80656 | 25502 ft | 428 kts | 52° |
| 2026-04-21 16:07 | 21.75613 | -156.77959 | 25879 ft | 430 kts | 52° |
| 2026-04-21 16:08 | 21.78849 | -156.72552 | 26623 ft | 435 kts | 52° |
| 2026-04-21 16:08 | 21.80489 | -156.69809 | 27009 ft | 437 kts | 52° |
| 2026-04-21 16:08 | 21.82136 | -156.67054 | 27369 ft | 439 kts | 52° |
| 2026-04-21 16:09 | 21.83794 | -156.64279 | 27717 ft | 441 kts | 52° |
| 2026-04-21 16:09 | 21.85457 | -156.61493 | 28093 ft | 444 kts | 52° |
| 2026-04-21 16:09 | 21.87127 | -156.58694 | 28439 ft | 446 kts | 52° |
| 2026-04-21 16:09 | 21.88813 | -156.55867 | 28779 ft | 448 kts | 52° |
| 2026-04-21 16:10 | 21.90504 | -156.53032 | 29106 ft | 451 kts | 52° |
| 2026-04-21 16:10 | 21.92177 | -156.50223 | 29457 ft | 452 kts | 52° |
| 2026-04-21 16:10 | 21.93882 | -156.47360 | 29791 ft | 454 kts | 52° |
| 2026-04-21 16:10 | 21.95590 | -156.44489 | 30114 ft | 457 kts | 52° |
| 2026-04-21 16:11 | 21.97314 | -156.41593 | 30424 ft | 459 kts | 52° |
| 2026-04-21 16:11 | 21.99037 | -156.38695 | 30767 ft | 460 kts | 52° |
| 2026-04-21 16:11 | 22.00765 | -156.35786 | 31097 ft | 461 kts | 52° |
| 2026-04-21 16:11 | 22.02497 | -156.32870 | 31414 ft | 463 kts | 52° |
| 2026-04-21 16:12 | 22.03647 | -156.30934 | 31593 ft | 464 kts | 52° |
| 2026-04-21 16:12 | 22.05980 | -156.27003 | 32024 ft | 466 kts | 52° |
| 2026-04-21 16:12 | 22.07731 | -156.24050 | 32323 ft | 468 kts | 52° |
| 2026-04-21 16:12 | 22.09485 | -156.21092 | 32593 ft | 469 kts | 52° |
| 2026-04-21 16:13 | 22.11247 | -156.18118 | 32823 ft | 471 kts | 52° |
| 2026-04-21 16:13 | 22.13010 | -156.15140 | 33032 ft | 473 kts | 52° |
| 2026-04-21 16:13 | 22.14783 | -156.12144 | 33249 ft | 474 kts | 52° |
| 2026-04-21 16:13 | 22.16557 | -156.09144 | 33409 ft | 475 kts | 52° |
| 2026-04-21 16:14 | 22.18337 | -156.06133 | 33553 ft | 476 kts | 52° |
| 2026-04-21 16:14 | 22.20094 | -156.03158 | 33750 ft | 476 kts | 52° |
| 2026-04-21 16:14 | 22.21875 | -156.00140 | 33986 ft | 475 kts | 52° |
| 2026-04-21 16:14 | 22.23646 | -155.97137 | 34199 ft | 474 kts | 52° |
| 2026-04-21 16:15 | 22.25416 | -155.94135 | 34376 ft | 474 kts | 52° |
| 2026-04-21 16:15 | 22.27189 | -155.91126 | 34569 ft | 473 kts | 52° |
| 2026-04-21 16:15 | 22.28955 | -155.88127 | 34752 ft | 473 kts | 52° |
| 2026-04-21 16:15 | 22.30717 | -155.85134 | 34936 ft | 473 kts | 52° |
| 2026-04-21 16:16 | 22.32485 | -155.82130 | 35077 ft | 473 kts | 52° |
| 2026-04-21 16:16 | 22.34247 | -155.79134 | 35259 ft | 472 kts | 52° |
| 2026-04-21 16:16 | 22.36009 | -155.76134 | 35434 ft | 472 kts | 52° |
| 2026-04-21 16:16 | 22.37746 | -155.73177 | 35594 ft | 472 kts | 52° |
| 2026-04-21 16:17 | 22.39507 | -155.70177 | 35722 ft | 473 kts | 52° |
| 2026-04-21 16:17 | 22.41265 | -155.67181 | 35897 ft | 472 kts | 52° |
| 2026-04-21 16:17 | 22.43026 | -155.64176 | 36068 ft | 472 kts | 52° |
| 2026-04-21 16:17 | 22.44782 | -155.61179 | 36216 ft | 472 kts | 52° |
| 2026-04-21 16:18 | 22.46542 | -155.58175 | 36334 ft | 473 kts | 52° |
| 2026-04-21 16:18 | 22.48302 | -155.55168 | 36495 ft | 473 kts | 52° |
| 2026-04-21 16:18 | 22.50057 | -155.52166 | 36665 ft | 473 kts | 52° |
| 2026-04-21 16:18 | 22.51815 | -155.49159 | 36790 ft | 473 kts | 52° |
| 2026-04-21 16:19 | 22.53576 | -155.46147 | 36910 ft | 474 kts | 52° |
| 2026-04-21 16:19 | 22.55336 | -155.43133 | 37055 ft | 474 kts | 52° |
| 2026-04-21 16:19 | 22.57075 | -155.40151 | 37060 ft | 473 kts | 52° |
| 2026-04-21 16:20 | 22.60588 | -155.34127 | 37058 ft | 474 kts | 52° |
| 2026-04-21 16:20 | 22.64101 | -155.28095 | 37059 ft | 473 kts | 52° |
| 2026-04-21 16:21 | 22.67619 | -155.22049 | 37057 ft | 475 kts | 52° |
| 2026-04-21 16:21 | 22.71133 | -155.16000 | 37056 ft | 474 kts | 52° |
| 2026-04-21 16:22 | 22.74622 | -155.09991 | 37050 ft | 474 kts | 52° |
| 2026-04-21 16:22 | 22.78130 | -155.03939 | 37052 ft | 474 kts | 52° |
| 2026-04-21 16:23 | 22.81638 | -154.97882 | 37053 ft | 474 kts | 52° |
| 2026-04-21 16:23 | 22.83345 | -154.94910 | 37048 ft | 454 kts | 51° |
| 2026-04-21 16:23 | 22.84984 | -154.92056 | 37063 ft | 437 kts | 51° |
| 2026-04-21 16:24 | 22.88222 | -154.86471 | 37071 ft | 441 kts | 51° |
| 2026-04-21 16:24 | 22.91508 | -154.80799 | 37071 ft | 444 kts | 51° |
| 2026-04-21 16:25 | 22.94777 | -154.75126 | 37062 ft | 443 kts | 51° |
| 2026-04-21 16:25 | 22.98045 | -154.69454 | 37063 ft | 443 kts | 51° |
| 2026-04-21 16:26 | 23.01314 | -154.63793 | 37064 ft | 442 kts | 50° |
| 2026-04-21 16:26 | 23.04680 | -154.58283 | 37063 ft | 441 kts | 49° |
| 2026-04-21 16:27 | 23.08090 | -154.52746 | 37069 ft | 441 kts | 49° |
| 2026-04-21 16:27 | 23.11481 | -154.47191 | 37070 ft | 440 kts | 49° |
| 2026-04-21 16:28 | 23.14856 | -154.41643 | 37071 ft | 440 kts | 49° |
| 2026-04-21 16:28 | 23.18225 | -154.36097 | 37072 ft | 439 kts | 49° |
| 2026-04-21 16:29 | 23.21024 | -154.31486 | 37074 ft | 439 kts | 49° |
| 2026-04-21 16:29 | 23.24930 | -154.25044 | 37071 ft | 438 kts | 49° |
| 2026-04-21 16:30 | 23.28287 | -154.19503 | 37068 ft | 438 kts | 49° |
| 2026-04-21 16:30 | 23.31633 | -154.13974 | 37069 ft | 437 kts | 49° |
| 2026-04-21 16:31 | 23.34953 | -154.08481 | 37070 ft | 437 kts | 49° |
| 2026-04-21 16:31 | 23.38292 | -154.02950 | 37073 ft | 436 kts | 49° |
| 2026-04-21 16:32 | 23.41620 | -153.97432 | 37072 ft | 436 kts | 49° |
| 2026-04-21 16:32 | 23.44946 | -153.91910 | 37072 ft | 435 kts | 50° |
| 2026-04-21 16:33 | 23.48272 | -153.86384 | 37075 ft | 435 kts | 50° |
| 2026-04-21 16:33 | 23.51587 | -153.80869 | 37073 ft | 435 kts | 50° |
| 2026-04-21 16:34 | 23.54875 | -153.75393 | 37078 ft | 434 kts | 50° |
| 2026-04-21 16:34 | 23.58186 | -153.69873 | 37070 ft | 434 kts | 50° |
| 2026-04-21 16:35 | 23.61495 | -153.64352 | 37063 ft | 434 kts | 50° |
| 2026-04-21 16:35 | 23.64798 | -153.58832 | 37065 ft | 434 kts | 50° |
| 2026-04-21 16:36 | 23.68098 | -153.53313 | 37068 ft | 434 kts | 50° |
| 2026-04-21 16:36 | 23.71395 | -153.47792 | 37068 ft | 434 kts | 50° |
| 2026-04-21 16:37 | 23.74671 | -153.42301 | 37070 ft | 434 kts | 50° |
| 2026-04-21 16:37 | 23.77971 | -153.36765 | 37068 ft | 435 kts | 50° |
| 2026-04-21 16:38 | 23.81273 | -153.31230 | 37074 ft | 435 kts | 50° |
| 2026-04-21 16:38 | 23.84584 | -153.25696 | 37072 ft | 435 kts | 50° |
| 2026-04-21 16:39 | 23.87892 | -153.20167 | 37069 ft | 435 kts | 50° |
| 2026-04-21 16:39 | 23.90642 | -153.15564 | 37071 ft | 435 kts | 50° |
| 2026-04-21 16:40 | 23.94490 | -153.09120 | 37070 ft | 435 kts | 50° |
| 2026-04-21 16:40 | 23.97797 | -153.03573 | 37072 ft | 436 kts | 50° |
| 2026-04-21 16:41 | 24.00568 | -152.98919 | 37072 ft | 436 kts | 51° |
| 2026-04-21 16:41 | 24.03855 | -152.93391 | 37072 ft | 436 kts | 51° |
| 2026-04-21 16:42 | 24.07165 | -152.87817 | 37069 ft | 437 kts | 51° |
| 2026-04-21 16:42 | 24.10483 | -152.82223 | 37074 ft | 437 kts | 51° |
| 2026-04-21 16:43 | 24.13775 | -152.76667 | 37074 ft | 438 kts | 51° |
| 2026-04-21 16:43 | 24.17088 | -152.71067 | 37076 ft | 438 kts | 51° |
| 2026-04-21 16:44 | 24.20404 | -152.65459 | 37076 ft | 438 kts | 51° |
| 2026-04-21 16:44 | 24.23717 | -152.59847 | 37077 ft | 439 kts | 51° |
| 2026-04-21 16:45 | 24.27034 | -152.54223 | 37078 ft | 439 kts | 51° |
| 2026-04-21 16:45 | 24.30357 | -152.48582 | 37078 ft | 440 kts | 51° |
| 2026-04-21 16:46 | 24.33679 | -152.42937 | 37078 ft | 441 kts | 51° |
| 2026-04-21 16:46 | 24.37000 | -152.37286 | 37080 ft | 441 kts | 52° |
| 2026-04-21 16:47 | 24.40305 | -152.31656 | 37080 ft | 442 kts | 52° |
| 2026-04-21 16:47 | 24.43629 | -152.25987 | 37081 ft | 442 kts | 52° |
| 2026-04-21 16:48 | 24.46955 | -152.20308 | 37082 ft | 442 kts | 52° |
| 2026-04-21 16:48 | 24.50291 | -152.14606 | 37081 ft | 443 kts | 52° |
| 2026-04-21 16:49 | 24.53628 | -152.08895 | 37082 ft | 444 kts | 52° |
| 2026-04-21 16:49 | 24.56964 | -152.03180 | 37081 ft | 444 kts | 52° |
| 2026-04-21 16:50 | 24.60278 | -151.97495 | 37085 ft | 445 kts | 52° |
| 2026-04-21 16:50 | 24.63615 | -151.91764 | 37088 ft | 445 kts | 52° |
| 2026-04-21 16:51 | 24.66955 | -151.86021 | 37084 ft | 446 kts | 52° |
| 2026-04-21 16:51 | 24.70298 | -151.80266 | 37086 ft | 447 kts | 52° |
| 2026-04-21 16:52 | 24.73640 | -151.74506 | 37088 ft | 447 kts | 52° |
| 2026-04-21 16:52 | 24.76988 | -151.68727 | 37088 ft | 448 kts | 52° |
| 2026-04-21 16:53 | 24.80340 | -151.62937 | 37090 ft | 448 kts | 53° |
| 2026-04-21 16:53 | 24.83688 | -151.57144 | 37091 ft | 449 kts | 53° |
| 2026-04-21 16:54 | 24.87038 | -151.51343 | 37091 ft | 449 kts | 53° |
| 2026-04-21 16:54 | 24.90390 | -151.45531 | 37087 ft | 449 kts | 53° |
| 2026-04-21 16:55 | 24.93722 | -151.39747 | 37093 ft | 450 kts | 53° |
| 2026-04-21 16:55 | 24.97073 | -151.33921 | 37092 ft | 450 kts | 53° |
| 2026-04-21 16:56 | 25.00424 | -151.28090 | 37090 ft | 450 kts | 53° |
| 2026-04-21 16:56 | 25.03774 | -151.22252 | 37085 ft | 451 kts | 53° |
| 2026-04-21 16:57 | 25.07126 | -151.16404 | 37089 ft | 451 kts | 53° |
| 2026-04-21 16:57 | 25.10478 | -151.10550 | 37091 ft | 451 kts | 53° |
| 2026-04-21 16:58 | 25.13830 | -151.04687 | 37094 ft | 452 kts | 54° |
| 2026-04-21 16:58 | 25.17188 | -150.98807 | 37094 ft | 452 kts | 54° |
| 2026-04-21 16:59 | 25.20520 | -150.92965 | 37094 ft | 452 kts | 54° |
| 2026-04-21 16:59 | 25.23874 | -150.87076 | 37093 ft | 453 kts | 54° |
| 2026-04-21 17:00 | 25.27232 | -150.81175 | 37096 ft | 453 kts | 54° |
| 2026-04-21 17:00 | 25.30025 | -150.76260 | 37094 ft | 454 kts | 54° |
| 2026-04-21 17:01 | 25.33943 | -150.69357 | 37095 ft | 454 kts | 54° |
| 2026-04-21 17:01 | 25.37301 | -150.63433 | 37095 ft | 455 kts | 54° |
| 2026-04-21 17:02 | 25.40634 | -150.57543 | 37098 ft | 455 kts | 54° |
| 2026-04-21 17:02 | 25.43993 | -150.51604 | 37098 ft | 455 kts | 54° |
| 2026-04-21 17:03 | 25.47350 | -150.45656 | 37102 ft | 455 kts | 54° |
| 2026-04-21 17:03 | 25.50708 | -150.39703 | 37100 ft | 456 kts | 55° |
| 2026-04-21 17:04 | 25.54068 | -150.33738 | 37105 ft | 456 kts | 55° |
| 2026-04-21 17:04 | 25.57407 | -150.27801 | 37105 ft | 457 kts | 55° |
| 2026-04-21 17:05 | 25.60766 | -150.21823 | 37106 ft | 457 kts | 55° |
| 2026-04-21 17:05 | 25.64123 | -150.15838 | 37107 ft | 457 kts | 55° |
| 2026-04-21 17:06 | 25.67479 | -150.09850 | 37109 ft | 457 kts | 55° |
| 2026-04-21 17:06 | 25.70838 | -150.03848 | 37105 ft | 458 kts | 55° |
| 2026-04-21 17:07 | 25.73628 | -149.98856 | 37108 ft | 458 kts | 55° |
| 2026-04-21 17:07 | 25.77526 | -149.91872 | 37106 ft | 458 kts | 56° |
| 2026-04-21 17:08 | 25.80878 | -149.85859 | 37104 ft | 458 kts | 56° |
| 2026-04-21 17:08 | 25.84229 | -149.79840 | 37105 ft | 458 kts | 56° |
| 2026-04-21 17:09 | 25.89259 | -149.70790 | 37112 ft | 459 kts | 56° |
| 2026-04-21 17:09 | 25.92613 | -149.64746 | 37115 ft | 459 kts | 56° |
| 2026-04-21 17:10 | 25.95966 | -149.58696 | 37112 ft | 459 kts | 56° |
| 2026-04-21 17:10 | 25.99294 | -149.52683 | 37109 ft | 460 kts | 56° |
| 2026-04-21 17:11 | 26.02649 | -149.46611 | 37115 ft | 461 kts | 56° |
| 2026-04-21 17:11 | 26.06010 | -149.40520 | 37119 ft | 462 kts | 56° |
| 2026-04-21 17:12 | 26.09366 | -149.34432 | 37118 ft | 461 kts | 56° |
| 2026-04-21 17:12 | 26.12719 | -149.28342 | 37120 ft | 462 kts | 56° |
| 2026-04-21 17:13 | 26.16073 | -149.22242 | 37118 ft | 462 kts | 56° |
| 2026-04-21 17:13 | 26.19422 | -149.16142 | 37116 ft | 462 kts | 56° |
| 2026-04-21 17:14 | 26.22747 | -149.10077 | 37120 ft | 462 kts | 56° |
| 2026-04-21 17:14 | 26.26097 | -149.03959 | 37121 ft | 462 kts | 56° |
| 2026-04-21 17:15 | 26.29446 | -148.97835 | 37119 ft | 463 kts | 56° |
| 2026-04-21 17:15 | 26.32800 | -148.91692 | 37119 ft | 463 kts | 56° |
| 2026-04-21 17:16 | 26.36150 | -148.85549 | 37129 ft | 464 kts | 56° |
| 2026-04-21 17:16 | 26.39507 | -148.79386 | 37130 ft | 464 kts | 56° |
| 2026-04-21 17:17 | 26.42859 | -148.73220 | 37131 ft | 465 kts | 57° |
| 2026-04-21 17:17 | 26.46189 | -148.67088 | 37133 ft | 465 kts | 57° |
| 2026-04-21 17:18 | 26.49544 | -148.60903 | 37132 ft | 465 kts | 57° |
| 2026-04-21 17:18 | 26.52894 | -148.54717 | 37136 ft | 465 kts | 57° |
| 2026-04-21 17:19 | 26.56245 | -148.48523 | 37137 ft | 466 kts | 57° |
| 2026-04-21 17:19 | 26.59594 | -148.42322 | 37138 ft | 466 kts | 57° |
| 2026-04-21 17:20 | 26.62942 | -148.36115 | 37137 ft | 466 kts | 57° |
| 2026-04-21 17:20 | 26.66288 | -148.29902 | 37139 ft | 467 kts | 57° |
| 2026-04-21 17:21 | 26.69638 | -148.23673 | 37139 ft | 467 kts | 57° |
| 2026-04-21 17:21 | 26.72986 | -148.17440 | 37138 ft | 468 kts | 57° |
| 2026-04-21 17:22 | 26.76334 | -148.11197 | 37143 ft | 468 kts | 57° |
| 2026-04-21 17:22 | 26.79666 | -148.04976 | 37143 ft | 468 kts | 57° |
| 2026-04-21 17:23 | 26.83018 | -147.98711 | 37143 ft | 469 kts | 57° |
| 2026-04-21 17:23 | 26.86369 | -147.92435 | 37148 ft | 469 kts | 57° |
| 2026-04-21 17:24 | 26.89717 | -147.86158 | 37146 ft | 470 kts | 57° |
| 2026-04-21 17:24 | 26.93069 | -147.79865 | 37148 ft | 470 kts | 57° |
| 2026-04-21 17:25 | 26.96417 | -147.73569 | 37149 ft | 471 kts | 57° |
| 2026-04-21 17:25 | 26.99768 | -147.67258 | 37152 ft | 471 kts | 57° |
| 2026-04-21 17:26 | 27.03101 | -147.60974 | 37152 ft | 471 kts | 57° |
| 2026-04-21 17:26 | 27.06450 | -147.54648 | 37156 ft | 472 kts | 57° |
| 2026-04-21 17:27 | 27.09803 | -147.48308 | 37158 ft | 472 kts | 57° |
| 2026-04-21 17:27 | 27.13156 | -147.41963 | 37163 ft | 473 kts | 57° |
| 2026-04-21 17:28 | 27.16506 | -147.35616 | 37165 ft | 473 kts | 57° |
| 2026-04-21 17:28 | 27.19860 | -147.29253 | 37158 ft | 473 kts | 57° |
| 2026-04-21 17:29 | 27.22644 | -147.23963 | 37160 ft | 473 kts | 57° |
| 2026-04-21 17:29 | 27.25651 | -147.17357 | 37161 ft | 475 kts | 63° |
| 2026-04-21 17:30 | 27.28995 | -147.09575 | 37161 ft | 476 kts | 62° |
| 2026-04-21 17:30 | 27.31420 | -147.03975 | 37162 ft | 476 kts | 62° |
| 2026-04-21 17:31 | 27.34311 | -146.97271 | 37166 ft | 476 kts | 62° |
| 2026-04-21 17:31 | 27.37180 | -146.90601 | 37168 ft | 476 kts | 62° |
| 2026-04-21 17:32 | 27.40065 | -146.83880 | 37171 ft | 477 kts | 62° |
| 2026-04-21 17:32 | 27.42949 | -146.77148 | 37169 ft | 477 kts | 62° |
| 2026-04-21 17:33 | 27.45826 | -146.70416 | 37170 ft | 477 kts | 63° |
| 2026-04-21 17:33 | 27.48702 | -146.63674 | 37172 ft | 477 kts | 63° |
| 2026-04-21 17:34 | 27.51554 | -146.56979 | 37171 ft | 477 kts | 63° |
| 2026-04-21 17:34 | 27.54423 | -146.50232 | 37169 ft | 477 kts | 63° |
| 2026-04-21 17:35 | 27.57292 | -146.43474 | 37170 ft | 478 kts | 63° |
| 2026-04-21 17:35 | 27.60159 | -146.36711 | 37172 ft | 478 kts | 63° |
| 2026-04-21 17:36 | 27.63022 | -146.29944 | 37172 ft | 478 kts | 63° |
| 2026-04-21 17:36 | 27.65885 | -146.23167 | 37174 ft | 478 kts | 63° |
| 2026-04-21 17:37 | 27.68743 | -146.16390 | 37175 ft | 479 kts | 63° |
| 2026-04-21 17:37 | 27.71602 | -146.09598 | 37175 ft | 479 kts | 63° |
| 2026-04-21 17:38 | 27.74439 | -146.02848 | 37177 ft | 479 kts | 63° |
| 2026-04-21 17:38 | 27.77294 | -145.96046 | 37176 ft | 479 kts | 63° |
| 2026-04-21 17:39 | 27.80144 | -145.89242 | 37179 ft | 479 kts | 63° |
| 2026-04-21 17:39 | 27.82993 | -145.82429 | 37175 ft | 480 kts | 63° |
| 2026-04-21 17:40 | 27.85841 | -145.75608 | 37180 ft | 480 kts | 63° |
| 2026-04-21 17:40 | 27.88688 | -145.68776 | 37181 ft | 481 kts | 63° |
| 2026-04-21 17:41 | 27.91533 | -145.61938 | 37180 ft | 481 kts | 63° |
| 2026-04-21 17:41 | 27.94378 | -145.55087 | 37182 ft | 481 kts | 63° |
| 2026-04-21 17:42 | 27.97206 | -145.48267 | 37181 ft | 481 kts | 63° |
| 2026-04-21 17:42 | 28.00045 | -145.41407 | 37180 ft | 482 kts | 64° |
| 2026-04-21 17:43 | 28.02887 | -145.34529 | 37181 ft | 482 kts | 64° |
| 2026-04-21 17:43 | 28.05725 | -145.27648 | 37183 ft | 482 kts | 64° |
| 2026-04-21 17:44 | 28.08560 | -145.20764 | 37187 ft | 483 kts | 64° |
| 2026-04-21 17:44 | 28.11394 | -145.13871 | 37187 ft | 483 kts | 64° |
| 2026-04-21 17:45 | 28.14226 | -145.06967 | 37190 ft | 483 kts | 64° |
| 2026-04-21 17:45 | 28.17058 | -145.00053 | 37190 ft | 483 kts | 64° |
| 2026-04-21 17:46 | 28.19888 | -144.93133 | 37190 ft | 484 kts | 64° |
| 2026-04-21 17:46 | 28.22696 | -144.86255 | 37189 ft | 484 kts | 64° |
| 2026-04-21 17:47 | 28.25524 | -144.79315 | 37190 ft | 484 kts | 64° |
| 2026-04-21 17:47 | 28.28346 | -144.72377 | 37191 ft | 484 kts | 64° |
| 2026-04-21 17:48 | 28.31169 | -144.65425 | 37190 ft | 485 kts | 64° |
| 2026-04-21 17:48 | 28.33992 | -144.58461 | 37192 ft | 485 kts | 64° |
| 2026-04-21 17:49 | 28.36811 | -144.51493 | 37191 ft | 486 kts | 64° |
| 2026-04-21 17:49 | 28.39607 | -144.44568 | 37194 ft | 486 kts | 64° |
| 2026-04-21 17:50 | 28.42426 | -144.37578 | 37192 ft | 486 kts | 64° |
| 2026-04-21 17:50 | 28.45239 | -144.30586 | 37196 ft | 487 kts | 65° |
| 2026-04-21 17:51 | 28.48050 | -144.23589 | 37198 ft | 487 kts | 65° |
| 2026-04-21 17:51 | 28.50862 | -144.16575 | 37195 ft | 487 kts | 65° |
| 2026-04-21 17:52 | 28.53668 | -144.09564 | 37196 ft | 487 kts | 65° |
| 2026-04-21 17:52 | 28.56473 | -144.02542 | 37197 ft | 488 kts | 65° |
| 2026-04-21 17:53 | 28.59256 | -143.95563 | 37199 ft | 488 kts | 65° |
| 2026-04-21 17:53 | 28.62058 | -143.88525 | 37200 ft | 488 kts | 65° |
| 2026-04-21 17:54 | 28.64856 | -143.81481 | 37198 ft | 488 kts | 65° |
| 2026-04-21 17:54 | 28.67652 | -143.74431 | 37197 ft | 488 kts | 65° |
| 2026-04-21 17:55 | 28.70444 | -143.67378 | 37197 ft | 489 kts | 65° |
| 2026-04-21 17:55 | 28.73235 | -143.60316 | 37196 ft | 489 kts | 65° |
| 2026-04-21 17:56 | 28.76024 | -143.53244 | 37197 ft | 489 kts | 65° |
| 2026-04-21 17:56 | 28.78756 | -143.46305 | 37198 ft | 490 kts | 65° |
| 2026-04-21 17:57 | 28.81406 | -143.39561 | 37195 ft | 490 kts | 65° |
| 2026-04-21 17:57 | 28.84066 | -143.32778 | 37200 ft | 490 kts | 65° |
| 2026-04-21 17:58 | 28.86851 | -143.25668 | 37198 ft | 490 kts | 65° |
| 2026-04-21 17:58 | 28.89632 | -143.18550 | 37198 ft | 491 kts | 65° |
| 2026-04-21 17:59 | 28.92407 | -143.11437 | 37200 ft | 491 kts | 65° |
| 2026-04-21 17:59 | 28.95183 | -143.04306 | 37201 ft | 491 kts | 65° |
| 2026-04-21 18:00 | 28.97957 | -142.97167 | 37201 ft | 492 kts | 66° |
| 2026-04-21 18:00 | 29.00728 | -142.90024 | 37197 ft | 492 kts | 66° |
| 2026-04-21 18:01 | 29.03479 | -142.82917 | 37196 ft | 492 kts | 66° |
| 2026-04-21 18:01 | 29.06246 | -142.75756 | 37200 ft | 493 kts | 66° |
| 2026-04-21 18:02 | 29.09011 | -142.68589 | 37200 ft | 493 kts | 66° |
| 2026-04-21 18:02 | 29.11774 | -142.61409 | 37199 ft | 493 kts | 66° |
| 2026-04-21 18:03 | 29.14538 | -142.54215 | 37199 ft | 494 kts | 66° |
| 2026-04-21 18:03 | 29.17297 | -142.47019 | 37201 ft | 494 kts | 66° |
| 2026-04-21 18:04 | 29.20059 | -142.39802 | 37201 ft | 495 kts | 66° |
| 2026-04-21 18:04 | 29.22816 | -142.32585 | 37203 ft | 495 kts | 66° |
| 2026-04-21 18:05 | 29.25570 | -142.25360 | 37206 ft | 495 kts | 66° |
| 2026-04-21 18:05 | 29.28320 | -142.18133 | 37204 ft | 495 kts | 66° |
| 2026-04-21 18:06 | 29.31070 | -142.10892 | 37204 ft | 495 kts | 66° |
| 2026-04-21 18:06 | 29.33797 | -142.03696 | 37203 ft | 495 kts | 66° |
| 2026-04-21 18:07 | 29.36541 | -141.96440 | 37204 ft | 496 kts | 66° |
| 2026-04-21 18:07 | 29.39282 | -141.89179 | 37203 ft | 496 kts | 66° |
| 2026-04-21 18:08 | 29.42020 | -141.81913 | 37203 ft | 496 kts | 66° |
| 2026-04-21 18:08 | 29.44742 | -141.74674 | 37205 ft | 496 kts | 66° |
| 2026-04-21 18:09 | 29.47473 | -141.67396 | 37209 ft | 497 kts | 66° |
| 2026-04-21 18:09 | 29.50203 | -141.60108 | 37207 ft | 497 kts | 66° |
| 2026-04-21 18:10 | 29.52930 | -141.52812 | 37206 ft | 497 kts | 66° |
| 2026-04-21 18:10 | 29.55652 | -141.45515 | 37206 ft | 497 kts | 66° |
| 2026-04-21 18:11 | 29.58371 | -141.38212 | 37202 ft | 497 kts | 66° |
| 2026-04-21 18:11 | 29.61088 | -141.30897 | 37204 ft | 498 kts | 66° |
| 2026-04-21 18:12 | 29.63786 | -141.23622 | 37205 ft | 498 kts | 66° |
| 2026-04-21 18:12 | 29.66498 | -141.16292 | 37204 ft | 498 kts | 66° |
| 2026-04-21 18:13 | 29.69207 | -141.08958 | 37203 ft | 498 kts | 66° |
| 2026-04-21 18:13 | 29.71912 | -141.01619 | 37203 ft | 498 kts | 67° |
| 2026-04-21 18:14 | 29.75966 | -140.90591 | 37205 ft | 498 kts | 67° |
| 2026-04-21 18:15 | 29.78663 | -140.83234 | 37206 ft | 499 kts | 67° |
| 2026-04-21 18:15 | 29.81358 | -140.75869 | 37206 ft | 499 kts | 67° |
| 2026-04-21 18:16 | 29.84031 | -140.68549 | 37207 ft | 499 kts | 67° |
| 2026-04-21 18:16 | 29.86719 | -140.61181 | 37206 ft | 499 kts | 67° |
| 2026-04-21 18:17 | 29.89408 | -140.53800 | 37204 ft | 499 kts | 67° |
| 2026-04-21 18:17 | 29.92091 | -140.46421 | 37202 ft | 499 kts | 67° |
| 2026-04-21 18:18 | 29.94768 | -140.39027 | 37203 ft | 499 kts | 68° |
| 2026-04-21 18:18 | 29.97190 | -140.31522 | 37203 ft | 500 kts | 69° |
| 2026-04-21 18:19 | 29.99254 | -140.25294 | 37205 ft | 500 kts | 69° |
| 2026-04-21 18:19 | 30.01736 | -140.17794 | 37200 ft | 500 kts | 69° |
| 2026-04-21 18:20 | 30.04601 | -140.09067 | 37197 ft | 500 kts | 69° |
| 2026-04-21 18:20 | 30.06659 | -140.02775 | 37200 ft | 500 kts | 69° |
| 2026-04-21 18:21 | 30.09113 | -139.95254 | 37208 ft | 500 kts | 69° |
| 2026-04-21 18:21 | 30.11560 | -139.87731 | 37207 ft | 500 kts | 69° |
| 2026-04-21 18:22 | 30.14001 | -139.80203 | 37202 ft | 500 kts | 69° |
| 2026-04-21 18:22 | 30.16441 | -139.72662 | 37209 ft | 500 kts | 69° |
| 2026-04-21 18:23 | 30.18860 | -139.65171 | 37202 ft | 501 kts | 69° |
| 2026-04-21 18:23 | 30.21289 | -139.57627 | 37205 ft | 501 kts | 69° |
| 2026-04-21 18:24 | 30.23715 | -139.50079 | 37202 ft | 501 kts | 69° |
| 2026-04-21 18:24 | 30.26138 | -139.42522 | 37203 ft | 501 kts | 69° |
| 2026-04-21 18:25 | 30.28561 | -139.34947 | 37208 ft | 501 kts | 69° |
| 2026-04-21 18:25 | 30.30980 | -139.27370 | 37193 ft | 501 kts | 69° |
| 2026-04-21 18:26 | 30.33395 | -139.19787 | 37193 ft | 502 kts | 69° |
| 2026-04-21 18:26 | 30.35803 | -139.12207 | 37216 ft | 502 kts | 69° |
| 2026-04-21 18:27 | 30.38192 | -139.04669 | 37214 ft | 502 kts | 69° |
| 2026-04-21 18:27 | 30.40597 | -138.97066 | 37195 ft | 503 kts | 69° |
| 2026-04-21 18:28 | 30.42996 | -138.89461 | 37195 ft | 503 kts | 69° |
| 2026-04-21 18:28 | 30.45395 | -138.81840 | 37199 ft | 503 kts | 69° |
| 2026-04-21 18:29 | 30.47788 | -138.74220 | 37216 ft | 503 kts | 69° |
| 2026-04-21 18:29 | 30.50179 | -138.66587 | 37208 ft | 504 kts | 69° |
| 2026-04-21 18:30 | 30.52568 | -138.58946 | 37207 ft | 504 kts | 69° |
| 2026-04-21 18:30 | 30.54955 | -138.51289 | 37204 ft | 504 kts | 69° |
| 2026-04-21 18:31 | 30.57323 | -138.43677 | 37206 ft | 505 kts | 69° |
| 2026-04-21 18:31 | 30.59700 | -138.36020 | 37204 ft | 505 kts | 69° |
| 2026-04-21 18:32 | 30.62079 | -138.28334 | 37203 ft | 505 kts | 69° |
| 2026-04-21 18:32 | 30.64451 | -138.20657 | 37205 ft | 505 kts | 69° |
| 2026-04-21 18:33 | 30.66821 | -138.12966 | 37205 ft | 506 kts | 69° |
| 2026-04-21 18:33 | 30.69186 | -138.05273 | 37210 ft | 506 kts | 69° |
| 2026-04-21 18:34 | 30.71534 | -137.97616 | 37202 ft | 506 kts | 69° |
| 2026-04-21 18:34 | 30.73895 | -137.89898 | 37205 ft | 506 kts | 69° |
| 2026-04-21 18:35 | 30.75855 | -137.83476 | 37202 ft | 507 kts | 69° |
| 2026-04-21 18:35 | 30.78604 | -137.74447 | 37206 ft | 507 kts | 69° |
| 2026-04-21 18:36 | 30.80953 | -137.66711 | 37204 ft | 507 kts | 69° |
| 2026-04-21 18:36 | 30.83301 | -137.58963 | 37204 ft | 507 kts | 69° |
| 2026-04-21 18:37 | 30.85628 | -137.51261 | 37203 ft | 508 kts | 69° |
| 2026-04-21 18:37 | 30.87966 | -137.43506 | 37206 ft | 508 kts | 69° |
| 2026-04-21 18:38 | 30.90301 | -137.35742 | 37203 ft | 508 kts | 69° |
| 2026-04-21 18:38 | 30.92635 | -137.27961 | 37204 ft | 508 kts | 69° |
| 2026-04-21 18:39 | 30.94962 | -137.20185 | 37203 ft | 509 kts | 69° |
| 2026-04-21 18:39 | 30.97287 | -137.12395 | 37204 ft | 509 kts | 69° |
| 2026-04-21 18:40 | 30.99608 | -137.04601 | 37204 ft | 509 kts | 69° |
| 2026-04-21 18:40 | 31.01535 | -136.98115 | 37202 ft | 509 kts | 69° |
| 2026-04-21 18:41 | 31.04225 | -136.89037 | 37205 ft | 510 kts | 69° |
| 2026-04-21 18:41 | 31.06535 | -136.81217 | 37206 ft | 510 kts | 69° |
| 2026-04-21 18:42 | 31.08847 | -136.73376 | 37200 ft | 510 kts | 69° |
| 2026-04-21 18:42 | 31.11152 | -136.65536 | 37203 ft | 511 kts | 69° |
| 2026-04-21 18:43 | 31.13452 | -136.57694 | 37199 ft | 511 kts | 69° |
| 2026-04-21 18:43 | 31.15750 | -136.49836 | 37199 ft | 511 kts | 69° |
| 2026-04-21 18:44 | 31.18043 | -136.41980 | 37200 ft | 511 kts | 69° |
| 2026-04-21 18:44 | 31.20320 | -136.34156 | 37200 ft | 512 kts | 69° |
| 2026-04-21 18:45 | 31.22609 | -136.26272 | 37196 ft | 512 kts | 69° |
| 2026-04-21 18:45 | 31.24893 | -136.18383 | 37203 ft | 513 kts | 69° |
| 2026-04-21 18:46 | 31.27174 | -136.10482 | 37200 ft | 513 kts | 69° |
| 2026-04-21 18:46 | 31.29453 | -136.02572 | 37203 ft | 514 kts | 69° |
| 2026-04-21 18:47 | 31.31730 | -135.94646 | 37197 ft | 514 kts | 69° |
| 2026-04-21 18:47 | 31.34005 | -135.86707 | 37192 ft | 514 kts | 69° |
| 2026-04-21 18:48 | 31.36259 | -135.78816 | 37198 ft | 515 kts | 69° |
| 2026-04-21 18:48 | 31.38527 | -135.70863 | 37197 ft | 515 kts | 69° |
| 2026-04-21 18:49 | 31.40791 | -135.62898 | 37200 ft | 516 kts | 69° |
| 2026-04-21 18:49 | 31.42670 | -135.56272 | 37194 ft | 516 kts | 69° |
| 2026-04-21 18:50 | 31.45308 | -135.46943 | 37190 ft | 516 kts | 69° |
| 2026-04-21 18:50 | 31.47561 | -135.38953 | 37195 ft | 516 kts | 69° |
| 2026-04-21 18:51 | 31.49796 | -135.31009 | 37191 ft | 517 kts | 69° |
| 2026-04-21 18:51 | 31.52042 | -135.23001 | 37192 ft | 517 kts | 69° |
| 2026-04-21 18:52 | 31.54282 | -135.14994 | 37192 ft | 517 kts | 69° |
| 2026-04-21 18:52 | 31.56522 | -135.06963 | 37190 ft | 518 kts | 69° |
| 2026-04-21 18:53 | 31.58757 | -134.98930 | 37192 ft | 518 kts | 69° |
| 2026-04-21 18:53 | 31.60988 | -134.90892 | 37191 ft | 519 kts | 69° |
| 2026-04-21 18:54 | 31.63215 | -134.82841 | 37189 ft | 519 kts | 69° |
| 2026-04-21 18:54 | 31.65439 | -134.74782 | 37191 ft | 519 kts | 69° |
| 2026-04-21 18:55 | 31.67287 | -134.68069 | 37191 ft | 519 kts | 69° |
| 2026-04-21 18:55 | 31.69864 | -134.58677 | 37188 ft | 520 kts | 69° |
| 2026-04-21 18:56 | 31.72077 | -134.50589 | 37191 ft | 520 kts | 69° |
| 2026-04-21 18:56 | 31.74289 | -134.42487 | 37192 ft | 521 kts | 69° |
| 2026-04-21 18:57 | 31.76496 | -134.34376 | 37189 ft | 521 kts | 69° |
| 2026-04-21 18:57 | 31.78699 | -134.26257 | 37186 ft | 521 kts | 69° |
| 2026-04-21 18:58 | 31.80886 | -134.18174 | 37186 ft | 522 kts | 69° |
| 2026-04-21 18:58 | 31.83083 | -134.10035 | 37181 ft | 522 kts | 69° |
| 2026-04-21 18:59 | 31.85275 | -134.01889 | 37183 ft | 522 kts | 69° |
| 2026-04-21 18:59 | 31.87462 | -133.93739 | 37183 ft | 523 kts | 69° |
| 2026-04-21 19:00 | 31.89650 | -133.85560 | 37182 ft | 523 kts | 69° |
| 2026-04-21 19:00 | 31.91831 | -133.77385 | 37182 ft | 524 kts | 69° |
| 2026-04-21 19:01 | 31.94008 | -133.69201 | 37183 ft | 524 kts | 69° |
| 2026-04-21 19:01 | 31.96182 | -133.61005 | 37182 ft | 524 kts | 69° |
| 2026-04-21 19:02 | 31.98350 | -133.52807 | 37183 ft | 525 kts | 69° |
| 2026-04-21 19:02 | 32.00503 | -133.44644 | 37181 ft | 525 kts | 69° |
| 2026-04-21 19:03 | 32.02665 | -133.36422 | 37178 ft | 526 kts | 69° |
| 2026-04-21 19:03 | 32.04825 | -133.28184 | 37182 ft | 526 kts | 69° |
| 2026-04-21 19:04 | 32.06983 | -133.19930 | 37184 ft | 527 kts | 70° |
| 2026-04-21 19:04 | 32.09137 | -133.11672 | 37180 ft | 527 kts | 69° |
| 2026-04-21 19:05 | 32.11290 | -133.03404 | 37179 ft | 528 kts | 70° |
| 2026-04-21 19:05 | 32.13441 | -132.95127 | 37178 ft | 528 kts | 70° |
| 2026-04-21 19:06 | 32.15588 | -132.86839 | 37176 ft | 528 kts | 70° |
| 2026-04-21 19:06 | 32.18314 | -132.78849 | 37175 ft | 521 kts | 57° |
| 2026-04-21 19:07 | 32.21691 | -132.71330 | 37171 ft | 522 kts | 57° |
| 2026-04-21 19:07 | 32.25079 | -132.63741 | 37175 ft | 522 kts | 57° |
| 2026-04-21 19:08 | 32.28448 | -132.56137 | 37172 ft | 523 kts | 57° |
| 2026-04-21 19:08 | 32.31814 | -132.48510 | 37174 ft | 523 kts | 58° |
| 2026-04-21 19:09 | 32.35179 | -132.40866 | 37175 ft | 524 kts | 58° |
| 2026-04-21 19:09 | 32.37974 | -132.34505 | 37175 ft | 524 kts | 58° |
| 2026-04-21 19:10 | 32.41328 | -132.26859 | 37172 ft | 524 kts | 58° |
| 2026-04-21 19:10 | 32.45228 | -132.17946 | 37171 ft | 524 kts | 58° |
| 2026-04-21 19:11 | 32.48035 | -132.11518 | 37171 ft | 525 kts | 58° |
| 2026-04-21 19:11 | 32.51364 | -132.03879 | 37166 ft | 525 kts | 58° |
| 2026-04-21 19:12 | 32.54711 | -131.96182 | 37167 ft | 525 kts | 58° |
| 2026-04-21 19:12 | 32.58054 | -131.88478 | 37156 ft | 525 kts | 58° |
| 2026-04-21 19:13 | 32.61391 | -131.80771 | 37176 ft | 525 kts | 58° |
| 2026-04-21 19:13 | 32.64729 | -131.73045 | 37161 ft | 526 kts | 58° |
| 2026-04-21 19:14 | 32.68064 | -131.65309 | 37163 ft | 526 kts | 58° |
| 2026-04-21 19:14 | 32.71394 | -131.57569 | 37163 ft | 526 kts | 58° |
| 2026-04-21 19:15 | 32.74697 | -131.49874 | 37162 ft | 527 kts | 58° |
| 2026-04-21 19:15 | 32.78023 | -131.42108 | 37164 ft | 527 kts | 58° |
| 2026-04-21 19:16 | 32.81341 | -131.34344 | 37163 ft | 527 kts | 58° |
| 2026-04-21 19:16 | 32.84660 | -131.26563 | 37163 ft | 527 kts | 58° |
| 2026-04-21 19:17 | 32.89630 | -131.14877 | 37156 ft | 528 kts | 58° |
| 2026-04-21 19:17 | 32.92936 | -131.07080 | 37158 ft | 528 kts | 58° |
| 2026-04-21 19:18 | 32.96241 | -130.99271 | 37155 ft | 528 kts | 58° |
| 2026-04-21 19:18 | 32.99518 | -130.91511 | 37157 ft | 528 kts | 58° |
| 2026-04-21 19:19 | 33.02820 | -130.83672 | 37157 ft | 529 kts | 58° |
| 2026-04-21 19:19 | 33.06112 | -130.75841 | 37149 ft | 529 kts | 58° |
| 2026-04-21 19:20 | 33.09404 | -130.67994 | 37152 ft | 529 kts | 58° |
| 2026-04-21 19:20 | 33.12691 | -130.60138 | 37149 ft | 529 kts | 58° |
| 2026-04-21 19:21 | 33.15977 | -130.52266 | 37154 ft | 530 kts | 58° |
| 2026-04-21 19:21 | 33.19259 | -130.44389 | 37151 ft | 530 kts | 58° |
| 2026-04-21 19:22 | 33.22540 | -130.36495 | 37152 ft | 530 kts | 58° |
| 2026-04-21 19:22 | 33.25797 | -130.28642 | 37149 ft | 531 kts | 58° |
| 2026-04-21 19:23 | 33.29068 | -130.20736 | 37150 ft | 531 kts | 58° |
| 2026-04-21 19:23 | 33.32341 | -130.12809 | 37144 ft | 531 kts | 58° |
| 2026-04-21 19:24 | 33.35606 | -130.04882 | 37143 ft | 531 kts | 58° |
| 2026-04-21 19:24 | 33.38868 | -129.96943 | 37144 ft | 532 kts | 59° |
| 2026-04-21 19:25 | 33.42127 | -129.88994 | 37146 ft | 532 kts | 59° |
| 2026-04-21 19:25 | 33.45360 | -129.81091 | 37141 ft | 532 kts | 59° |
| 2026-04-21 19:26 | 33.48610 | -129.73128 | 37141 ft | 532 kts | 59° |
| 2026-04-21 19:26 | 33.51857 | -129.65155 | 37141 ft | 532 kts | 59° |
| 2026-04-21 19:27 | 33.55100 | -129.57172 | 37137 ft | 532 kts | 59° |
| 2026-04-21 19:27 | 33.58336 | -129.49189 | 37137 ft | 532 kts | 59° |
| 2026-04-21 19:28 | 33.61572 | -129.41186 | 37138 ft | 533 kts | 59° |
| 2026-04-21 19:28 | 33.64779 | -129.33237 | 37132 ft | 533 kts | 59° |
| 2026-04-21 19:29 | 33.68003 | -129.25227 | 37132 ft | 533 kts | 59° |
| 2026-04-21 19:29 | 33.71226 | -129.17198 | 37133 ft | 533 kts | 59° |
| 2026-04-21 19:30 | 33.74442 | -129.09168 | 37133 ft | 534 kts | 59° |
| 2026-04-21 19:30 | 33.77656 | -129.01125 | 37140 ft | 534 kts | 59° |
| 2026-04-21 19:31 | 33.80867 | -128.93073 | 37128 ft | 534 kts | 60° |
| 2026-04-21 19:31 | 33.84076 | -128.85005 | 37127 ft | 535 kts | 60° |
| 2026-04-21 19:32 | 33.86368 | -128.76492 | 37118 ft | 543 kts | 77° |
| 2026-04-21 19:32 | 33.86984 | -128.67407 | 37113 ft | 546 kts | 88° |
| 2026-04-21 19:33 | 33.87213 | -128.58269 | 37120 ft | 546 kts | 87° |
| 2026-04-21 19:33 | 33.87467 | -128.49126 | 37117 ft | 547 kts | 87° |
| 2026-04-21 19:34 | 33.87707 | -128.39978 | 37122 ft | 547 kts | 87° |
| 2026-04-21 19:34 | 33.87938 | -128.30811 | 37120 ft | 548 kts | 87° |
| 2026-04-21 19:35 | 33.88270 | -128.17050 | 37122 ft | 549 kts | 88° |
| 2026-04-21 19:36 | 33.88482 | -128.07930 | 37120 ft | 549 kts | 88° |
| 2026-04-21 19:36 | 33.88688 | -127.98737 | 37120 ft | 549 kts | 88° |
| 2026-04-21 19:37 | 33.88888 | -127.89543 | 37117 ft | 550 kts | 88° |
| 2026-04-21 19:37 | 33.89082 | -127.80334 | 37119 ft | 550 kts | 88° |
| 2026-04-21 19:38 | 33.89268 | -127.71122 | 37123 ft | 551 kts | 88° |
| 2026-04-21 19:38 | 33.89418 | -127.63457 | 37116 ft | 551 kts | 88° |
| 2026-04-21 19:39 | 33.89622 | -127.52657 | 37116 ft | 552 kts | 88° |
| 2026-04-21 19:39 | 33.89787 | -127.43485 | 37116 ft | 552 kts | 88° |
| 2026-04-21 19:40 | 33.89947 | -127.34235 | 37110 ft | 553 kts | 88° |
| 2026-04-21 19:40 | 33.90100 | -127.24974 | 37112 ft | 553 kts | 88° |
| 2026-04-21 19:41 | 33.90246 | -127.15715 | 37114 ft | 554 kts | 88° |
| 2026-04-21 19:41 | 33.90385 | -127.06442 | 37111 ft | 554 kts | 88° |
| 2026-04-21 19:42 | 33.90518 | -126.97164 | 37114 ft | 555 kts | 89° |
| 2026-04-21 19:42 | 33.90644 | -126.87879 | 37115 ft | 555 kts | 89° |
| 2026-04-21 19:43 | 33.90763 | -126.78581 | 37109 ft | 555 kts | 89° |
| 2026-04-21 19:43 | 33.90874 | -126.69332 | 37115 ft | 556 kts | 89° |
| 2026-04-21 19:44 | 33.90979 | -126.60010 | 37111 ft | 556 kts | 89° |
| 2026-04-21 19:44 | 33.91077 | -126.50685 | 37106 ft | 557 kts | 89° |
| 2026-04-21 19:45 | 33.91168 | -126.41355 | 37116 ft | 557 kts | 89° |
| 2026-04-21 19:45 | 33.91252 | -126.32081 | 37113 ft | 558 kts | 89° |
| 2026-04-21 19:46 | 33.91329 | -126.22737 | 37113 ft | 558 kts | 89° |
| 2026-04-21 19:46 | 33.91400 | -126.13392 | 37109 ft | 559 kts | 89° |
| 2026-04-21 19:47 | 33.91463 | -126.04029 | 37106 ft | 559 kts | 89° |
| 2026-04-21 19:47 | 33.91519 | -125.94660 | 37099 ft | 560 kts | 90° |
| 2026-04-21 19:48 | 33.91568 | -125.85279 | 37109 ft | 560 kts | 90° |
| 2026-04-21 19:48 | 33.91610 | -125.75950 | 37104 ft | 561 kts | 90° |
| 2026-04-21 19:49 | 33.91645 | -125.66555 | 37110 ft | 561 kts | 90° |
| 2026-04-21 19:49 | 33.91673 | -125.57162 | 37108 ft | 562 kts | 90° |
| 2026-04-21 19:50 | 33.91691 | -125.49326 | 37105 ft | 562 kts | 90° |
| 2026-04-21 19:50 | 33.91708 | -125.38317 | 37101 ft | 562 kts | 90° |
| 2026-04-21 19:51 | 33.91714 | -125.28888 | 37102 ft | 563 kts | 90° |
| 2026-04-21 19:51 | 33.91713 | -125.19521 | 37100 ft | 563 kts | 90° |
| 2026-04-21 19:52 | 33.91706 | -125.10092 | 37100 ft | 564 kts | 90° |
| 2026-04-21 19:52 | 33.91693 | -125.00656 | 37100 ft | 564 kts | 90° |
| 2026-04-21 19:53 | 33.91909 | -124.91223 | 37096 ft | 563 kts | 82° |
| 2026-04-21 19:53 | 33.93506 | -124.82012 | 37090 ft | 562 kts | 75° |
| 2026-04-21 19:54 | 33.95263 | -124.72822 | 37092 ft | 563 kts | 75° |
| 2026-04-21 19:54 | 33.96998 | -124.63603 | 37091 ft | 564 kts | 75° |
| 2026-04-21 19:55 | 33.98722 | -124.54384 | 37092 ft | 565 kts | 75° |
| 2026-04-21 19:55 | 34.00433 | -124.45193 | 37091 ft | 565 kts | 75° |
| 2026-04-21 19:56 | 34.02149 | -124.35938 | 37093 ft | 566 kts | 76° |
| 2026-04-21 19:56 | 34.03859 | -124.26675 | 37086 ft | 566 kts | 76° |
| 2026-04-21 19:57 | 34.05564 | -124.17394 | 37085 ft | 567 kts | 76° |
| 2026-04-21 19:57 | 34.07263 | -124.08105 | 37089 ft | 567 kts | 76° |
| 2026-04-21 19:58 | 34.08956 | -123.98807 | 37085 ft | 568 kts | 76° |
| 2026-04-21 19:58 | 34.10633 | -123.89555 | 37083 ft | 568 kts | 76° |
| 2026-04-21 19:59 | 34.12314 | -123.80240 | 37083 ft | 568 kts | 76° |
| 2026-04-21 19:59 | 34.13989 | -123.70918 | 37081 ft | 569 kts | 76° |
| 2026-04-21 20:00 | 34.15660 | -123.61569 | 37081 ft | 569 kts | 76° |
| 2026-04-21 20:00 | 34.17323 | -123.52219 | 37079 ft | 569 kts | 77° |
| 2026-04-21 20:01 | 34.18968 | -123.42933 | 37080 ft | 569 kts | 77° |
| 2026-04-21 20:01 | 34.20617 | -123.33577 | 37076 ft | 569 kts | 77° |
| 2026-04-21 20:02 | 34.21992 | -123.25741 | 37074 ft | 569 kts | 77° |
| 2026-04-21 20:02 | 34.23891 | -123.14868 | 37078 ft | 569 kts | 77° |
| 2026-04-21 20:03 | 34.24713 | -123.05374 | 37072 ft | 568 kts | 91° |
| 2026-04-21 20:03 | 34.24317 | -122.95904 | 37072 ft | 567 kts | 95° |
| 2026-04-21 20:04 | 34.23892 | -122.86382 | 37080 ft | 567 kts | 95° |
| 2026-04-21 20:04 | 34.23539 | -122.78477 | 37077 ft | 567 kts | 95° |
| 2026-04-21 20:05 | 34.23103 | -122.68973 | 37077 ft | 567 kts | 95° |
| 2026-04-21 20:05 | 34.22658 | -122.59454 | 37078 ft | 566 kts | 96° |
| 2026-04-21 20:06 | 34.22205 | -122.49951 | 37082 ft | 566 kts | 96° |
| 2026-04-21 20:06 | 34.21746 | -122.40457 | 37082 ft | 565 kts | 96° |
| 2026-04-21 20:07 | 34.21280 | -122.30986 | 37081 ft | 565 kts | 96° |
| 2026-04-21 20:07 | 34.20811 | -122.21577 | 37081 ft | 564 kts | 96° |
| 2026-04-21 20:08 | 34.20331 | -122.12117 | 37081 ft | 564 kts | 96° |
| 2026-04-21 20:08 | 34.19844 | -122.02664 | 37082 ft | 564 kts | 96° |
| 2026-04-21 20:09 | 34.19351 | -121.93228 | 37092 ft | 563 kts | 96° |
| 2026-04-21 20:09 | 34.18850 | -121.83774 | 37089 ft | 563 kts | 97° |
| 2026-04-21 20:10 | 34.18343 | -121.74341 | 37086 ft | 562 kts | 97° |
| 2026-04-21 20:10 | 34.17828 | -121.64917 | 37086 ft | 562 kts | 97° |
| 2026-04-21 20:11 | 34.17307 | -121.55498 | 37085 ft | 561 kts | 97° |
| 2026-04-21 20:11 | 34.16783 | -121.46151 | 37087 ft | 561 kts | 97° |
| 2026-04-21 20:12 | 34.16249 | -121.36756 | 37086 ft | 561 kts | 97° |
| 2026-04-21 20:12 | 34.15980 | -121.32058 | 36954 ft | 560 kts | 97° |
| 2026-04-21 20:12 | 34.15709 | -121.27366 | 36690 ft | 560 kts | 98° |
| 2026-04-21 20:12 | 34.15436 | -121.22670 | 36146 ft | 561 kts | 98° |
| 2026-04-21 20:13 | 34.15161 | -121.17962 | 35362 ft | 563 kts | 98° |
| 2026-04-21 20:13 | 34.14884 | -121.13239 | 34398 ft | 566 kts | 98° |
| 2026-04-21 20:13 | 34.14602 | -121.08475 | 33145 ft | 570 kts | 99° |
| 2026-04-21 20:13 | 34.14316 | -121.03690 | 31807 ft | 572 kts | 99° |
| 2026-04-21 20:14 | 34.14058 | -120.98945 | 30570 ft | 574 kts | 96° |
| 2026-04-21 20:14 | 34.14226 | -120.94133 | 29611 ft | 572 kts | 87° |
| 2026-04-21 20:14 | 34.14641 | -120.89394 | 28920 ft | 563 kts | 87° |
| 2026-04-21 20:14 | 34.15034 | -120.84733 | 28512 ft | 551 kts | 88° |
| 2026-04-21 20:15 | 34.15408 | -120.80185 | 28061 ft | 540 kts | 88° |
| 2026-04-21 20:15 | 34.15772 | -120.75688 | 27410 ft | 536 kts | 88° |
| 2026-04-21 20:15 | 34.16127 | -120.71243 | 26929 ft | 529 kts | 88° |
| 2026-04-21 20:15 | 34.16478 | -120.66837 | 26293 ft | 525 kts | 88° |
| 2026-04-21 20:16 | 34.16826 | -120.62460 | 25651 ft | 521 kts | 88° |
| 2026-04-21 20:16 | 34.17169 | -120.58125 | 24966 ft | 518 kts | 88° |
| 2026-04-21 20:16 | 34.17509 | -120.53810 | 24378 ft | 513 kts | 88° |
| 2026-04-21 20:16 | 34.17845 | -120.49529 | 23730 ft | 510 kts | 88° |
| 2026-04-21 20:17 | 34.18177 | -120.45276 | 23063 ft | 506 kts | 88° |
| 2026-04-21 20:17 | 34.18504 | -120.41085 | 22462 ft | 499 kts | 88° |
| 2026-04-21 20:17 | 34.18825 | -120.36939 | 21844 ft | 492 kts | 88° |
| 2026-04-21 20:17 | 34.19140 | -120.32841 | 21226 ft | 486 kts | 88° |
| 2026-04-21 20:18 | 34.19417 | -120.28808 | 20756 ft | 477 kts | 90° |
| 2026-04-21 20:18 | 34.19569 | -120.24855 | 20567 ft | 480 kts | 91° |
| 2026-04-21 20:18 | 34.19687 | -120.20815 | 20290 ft | 481 kts | 91° |
| 2026-04-21 20:18 | 34.19809 | -120.16793 | 20000 ft | 477 kts | 91° |
| 2026-04-21 20:19 | 34.19942 | -120.12807 | 19734 ft | 473 kts | 90° |
| 2026-04-21 20:19 | 34.20082 | -120.08887 | 19604 ft | 461 kts | 90° |
| 2026-04-21 20:19 | 34.20167 | -120.05067 | 19291 ft | 449 kts | 94° |
| 2026-04-21 20:19 | 34.20115 | -120.01323 | 18844 ft | 441 kts | 95° |
| 2026-04-21 20:20 | 34.20060 | -119.97652 | 18615 ft | 436 kts | 95° |
| 2026-04-21 20:20 | 34.20004 | -119.93981 | 18341 ft | 438 kts | 94° |
| 2026-04-21 20:20 | 34.19952 | -119.90324 | 18061 ft | 434 kts | 94° |
| 2026-04-21 20:20 | 34.19904 | -119.86699 | 17761 ft | 429 kts | 94° |
| 2026-04-21 20:21 | 34.19856 | -119.83101 | 17397 ft | 425 kts | 94° |
| 2026-04-21 20:21 | 34.19808 | -119.79550 | 17152 ft | 421 kts | 94° |
| 2026-04-21 20:21 | 34.19758 | -119.76020 | 16890 ft | 420 kts | 95° |
| 2026-04-21 20:21 | 34.19706 | -119.72509 | 16634 ft | 417 kts | 95° |
| 2026-04-21 20:22 | 34.19654 | -119.69018 | 16377 ft | 414 kts | 95° |
| 2026-04-21 20:22 | 34.19550 | -119.62160 | 15882 ft | 408 kts | 95° |
| 2026-04-21 20:22 | 34.19496 | -119.58745 | 15623 ft | 405 kts | 95° |
| 2026-04-21 20:23 | 34.19442 | -119.55353 | 15384 ft | 403 kts | 95° |
| 2026-04-21 20:23 | 34.19387 | -119.51985 | 15150 ft | 400 kts | 95° |
| 2026-04-21 20:23 | 34.19332 | -119.48637 | 14902 ft | 397 kts | 95° |
| 2026-04-21 20:23 | 34.19276 | -119.45313 | 14661 ft | 395 kts | 95° |
| 2026-04-21 20:24 | 34.19220 | -119.42005 | 14424 ft | 393 kts | 95° |
| 2026-04-21 20:24 | 34.19163 | -119.38715 | 14184 ft | 390 kts | 95° |
| 2026-04-21 20:24 | 34.19106 | -119.35450 | 13944 ft | 388 kts | 95° |
| 2026-04-21 20:24 | 34.19051 | -119.32198 | 13588 ft | 386 kts | 95° |
| 2026-04-21 20:25 | 34.19000 | -119.28983 | 13261 ft | 380 kts | 95° |
| 2026-04-21 20:25 | 34.18949 | -119.25813 | 12945 ft | 376 kts | 95° |
| 2026-04-21 20:25 | 34.18897 | -119.22660 | 12629 ft | 373 kts | 95° |
| 2026-04-21 20:25 | 34.18845 | -119.19544 | 12338 ft | 368 kts | 95° |
| 2026-04-21 20:26 | 34.18796 | -119.16515 | 12210 ft | 353 kts | 95° |
| 2026-04-21 20:26 | 34.18749 | -119.13578 | 12008 ft | 337 kts | 96° |
| 2026-04-21 20:26 | 34.18702 | -119.10850 | 11589 ft | 330 kts | 96° |
| 2026-04-21 20:26 | 34.18640 | -119.08105 | 11162 ft | 321 kts | 98° |
| 2026-04-21 20:27 | 34.18257 | -119.05531 | 10916 ft | 306 kts | 113° |
| 2026-04-21 20:27 | 34.17429 | -119.03171 | 10877 ft | 304 kts | 123° |
| 2026-04-21 20:27 | 34.16493 | -119.00873 | 10806 ft | 305 kts | 122° |
| 2026-04-21 20:27 | 34.15576 | -118.98570 | 10732 ft | 304 kts | 122° |
| 2026-04-21 20:28 | 34.14671 | -118.96271 | 10651 ft | 303 kts | 122° |
| 2026-04-21 20:28 | 34.13771 | -118.93969 | 10577 ft | 303 kts | 122° |
| 2026-04-21 20:28 | 34.12871 | -118.91668 | 10506 ft | 303 kts | 122° |
| 2026-04-21 20:28 | 34.12011 | -118.89461 | 10442 ft | 302 kts | 122° |
| 2026-04-21 20:29 | 34.11116 | -118.87159 | 10365 ft | 302 kts | 122° |
| 2026-04-21 20:29 | 34.10219 | -118.84874 | 10298 ft | 301 kts | 122° |
| 2026-04-21 20:29 | 34.09323 | -118.82593 | 10215 ft | 300 kts | 122° |
| 2026-04-21 20:29 | 34.08434 | -118.80321 | 10144 ft | 299 kts | 122° |
| 2026-04-21 20:30 | 34.07554 | -118.78079 | 10057 ft | 299 kts | 122° |
| 2026-04-21 20:30 | 34.06666 | -118.75820 | 10001 ft | 298 kts | 122° |
| 2026-04-21 20:30 | 34.05779 | -118.73564 | 9896 ft | 298 kts | 122° |
| 2026-04-21 20:30 | 34.04891 | -118.71302 | 9562 ft | 298 kts | 122° |
| 2026-04-21 20:31 | 34.04019 | -118.69077 | 9331 ft | 289 kts | 122° |
| 2026-04-21 20:31 | 34.03222 | -118.66897 | 9051 ft | 282 kts | 116° |
| 2026-04-21 20:31 | 34.02742 | -118.64566 | 8878 ft | 291 kts | 103° |
| 2026-04-21 20:31 | 34.02533 | -118.62133 | 8628 ft | 291 kts | 101° |
| 2026-04-21 20:32 | 34.02334 | -118.59724 | 8412 ft | 288 kts | 101° |
| 2026-04-21 20:32 | 34.02120 | -118.57315 | 8182 ft | 288 kts | 101° |
| 2026-04-21 20:32 | 34.01899 | -118.54928 | 8027 ft | 286 kts | 101° |
| 2026-04-21 20:32 | 34.01672 | -118.52535 | 7954 ft | 287 kts | 101° |
| 2026-04-21 20:33 | 34.01445 | -118.50144 | 7821 ft | 286 kts | 101° |
| 2026-04-21 20:33 | 34.01220 | -118.47764 | 7463 ft | 286 kts | 101° |
| 2026-04-21 20:33 | 34.01119 | -118.45395 | 6991 ft | 288 kts | 91° |
| 2026-04-21 20:33 | 34.01441 | -118.43052 | 6799 ft | 276 kts | 79° |
| 2026-04-21 20:34 | 34.01854 | -118.40852 | 6609 ft | 264 kts | 80° |
| 2026-04-21 20:34 | 34.02238 | -118.38722 | 6280 ft | 257 kts | 81° |
| 2026-04-21 20:34 | 34.02599 | -118.36643 | 6039 ft | 247 kts | 81° |
| 2026-04-21 20:34 | 34.02880 | -118.34609 | 6008 ft | 248 kts | 86° |
| 2026-04-21 20:35 | 34.03073 | -118.32554 | 5906 ft | 246 kts | 86° |
| 2026-04-21 20:35 | 34.03267 | -118.30515 | 5669 ft | 241 kts | 86° |
| 2026-04-21 20:35 | 34.03462 | -118.28552 | 5468 ft | 230 kts | 86° |
| 2026-04-21 20:35 | 34.03662 | -118.26626 | 5317 ft | 233 kts | 86° |
| 2026-04-21 20:36 | 34.03869 | -118.24690 | 4986 ft | 233 kts | 86° |
| 2026-04-21 20:36 | 34.04079 | -118.22751 | 4579 ft | 232 kts | 85° |
| 2026-04-21 20:36 | 34.04285 | -118.20851 | 4176 ft | 231 kts | 85° |
| 2026-04-21 20:36 | 34.04493 | -118.18964 | 4017 ft | 222 kts | 85° |
| 2026-04-21 20:37 | 34.04704 | -118.17107 | 3987 ft | 226 kts | 85° |
| 2026-04-21 20:37 | 34.04905 | -118.15249 | 3988 ft | 221 kts | 85° |
| 2026-04-21 20:37 | 34.05109 | -118.13380 | 3982 ft | 225 kts | 85° |
| 2026-04-21 20:37 | 34.05311 | -118.11531 | 3989 ft | 225 kts | 85° |
| 2026-04-21 20:38 | 34.05355 | -118.09668 | 3986 ft | 220 kts | 103° |
| 2026-04-21 20:38 | 34.04734 | -118.08043 | 3993 ft | 213 kts | 135° |
| 2026-04-21 20:38 | 34.03545 | -118.07088 | 3996 ft | 204 kts | 167° |
| 2026-04-21 20:38 | 34.02163 | -118.07081 | 3994 ft | 200 kts | 199° |
| 2026-04-21 20:39 | 34.00966 | -118.08041 | 3999 ft | 225 kts | 227° |
| 2026-04-21 20:39 | 33.99964 | -118.09438 | 3985 ft | 210 kts | 229° |
| 2026-04-21 20:39 | 33.99041 | -118.10696 | 3980 ft | 191 kts | 227° |
| 2026-04-21 20:39 | 33.98289 | -118.11964 | 4006 ft | 191 kts | 243° |
| 2026-04-21 20:40 | 33.97892 | -118.13605 | 3987 ft | 209 kts | 259° |
| 2026-04-21 20:40 | 33.97754 | -118.15277 | 3980 ft | 193 kts | 263° |
| 2026-04-21 20:40 | 33.97606 | -118.16829 | 3926 ft | 185 kts | 260° |
| 2026-04-21 20:40 | 33.97440 | -118.18375 | 3706 ft | 185 kts | 260° |
| 2026-04-21 20:41 | 33.97293 | -118.19844 | 3470 ft | 172 kts | 260° |
| 2026-04-21 20:41 | 33.97146 | -118.21263 | 3257 ft | 173 kts | 259° |
| 2026-04-21 20:41 | 33.96998 | -118.22686 | 3029 ft | 169 kts | 260° |
| 2026-04-21 20:41 | 33.96855 | -118.24102 | 2810 ft | 171 kts | 259° |
| 2026-04-21 20:42 | 33.96713 | -118.25490 | 2579 ft | 163 kts | 259° |
| 2026-04-21 20:42 | 33.96567 | -118.26900 | 2361 ft | 173 kts | 259° |
| 2026-04-21 20:42 | 33.96431 | -118.28291 | 2130 ft | 160 kts | 258° |
| 2026-04-21 20:42 | 33.96299 | -118.29555 | 1925 ft | 144 kts | 257° |
| 2026-04-21 20:43 | 33.96174 | -118.30749 | 1738 ft | 145 kts | 258° |
| 2026-04-21 20:43 | 33.96060 | -118.31909 | 1528 ft | 136 kts | 256° |
| 2026-04-21 20:43 | 33.95930 | -118.33102 | 1356 ft | 143 kts | 258° |
| 2026-04-21 20:43 | 33.95813 | -118.34293 | 1152 ft | 146 kts | 258° |
| 2026-04-21 20:44 | 33.95694 | -118.35455 | 958 ft | 137 kts | 258° |
| 2026-04-21 20:44 | 33.95567 | -118.36649 | 750 ft | 149 kts | 260° |
| 2026-04-21 20:44 | 33.95455 | -118.37843 | 527 ft | 139 kts | 261° |
| 2026-04-21 20:44 | 33.95335 | -118.38984 | 336 ft | 138 kts | 260° |
| 2026-04-21 20:45 | 33.95222 | -118.40104 | 152 ft | 132 kts | 262° |
| 2026-04-21 20:45 | 33.95111 | -118.41132 | 110 ft | 99 kts | 262° |
| 2026-04-21 20:45 | 33.95055 | -118.41715 | 112 ft | 40 kts | 263° |
| 2026-04-21 20:45 | 33.95020 | -118.42043 | 110 ft | 39 kts | 263° |
| 2026-04-21 20:46 | 33.94987 | -118.42357 | 112 ft | 36 kts | 260° |
| 2026-04-21 20:46 | 33.94896 | -118.42613 | 110 ft | 32 kts | 233° |
| 2026-04-21 20:46 | 33.94768 | -118.42754 | 110 ft | 20 kts | 208° |
| 2026-04-21 20:46 | 33.94649 | -118.42737 | 107 ft | 20 kts | 126° |
| 2026-04-21 20:47 | 33.94650 | -118.42563 | 105 ft | 22 kts | 82° |
| 2026-04-21 20:47 | 33.94671 | -118.42374 | 105 ft | 24 kts | 85° |
| 2026-04-21 20:47 | 33.94687 | -118.42195 | 107 ft | 25 kts | 83° |
| 2026-04-21 20:47 | 33.94711 | -118.41976 | 104 ft | 26 kts | 82° |
| 2026-04-21 20:48 | 33.94736 | -118.41753 | 104 ft | 28 kts | 83° |
| 2026-04-21 20:48 | 33.94757 | -118.41537 | 106 ft | 13 kts | 84° |
| 2026-04-21 20:48 | 33.94754 | -118.41429 | 106 ft | 14 kts | 109° |
| 2026-04-21 20:48 | 33.94662 | -118.41377 | 103 ft | 16 kts | 172° |
| 2026-04-21 20:49 | 33.94544 | -118.41362 | 102 ft | 16 kts | 173° |
| 2026-04-21 20:49 | 33.94427 | -118.41345 | 101 ft | 18 kts | 173° |
| 2026-04-21 20:49 | 33.94316 | -118.41328 | 102 ft | 14 kts | 171° |
| 2026-04-21 20:49 | 33.94252 | -118.41246 | 102 ft | 14 kts | 123° |
| 2026-04-21 20:50 | 33.94188 | -118.41191 | 102 ft | 10 kts | 142° |
| 2026-04-21 20:50 | 33.94174 | -118.41138 | 104 ft | 0 kts | 94° |
| 2026-04-21 20:50 | 33.94176 | -118.41112 | 102 ft | 6 kts | 84° |
| 2026-04-21 20:50 | 33.94178 | -118.41087 | 101 ft | 1 kts | 84° |